createdAt,value
2019-04-04T00:01:06.085Z,6.17
2019-04-04T00:06:09.798Z,5.57
2019-04-04T00:11:12.362Z,5.57
2019-04-04T00:16:15.986Z,6.27
2019-04-04T00:21:17.634Z,4.63
2019-04-04T00:26:20.160Z,4.90
2019-04-04T00:31:22.754Z,5.07
2019-04-04T00:36:25.445Z,6.40
2019-04-04T00:41:28.028Z,5.97
2019-04-04T00:46:31.036Z,5.23
2019-04-04T00:51:33.200Z,5.43
2019-04-04T00:56:35.776Z,6.00
2019-04-04T01:01:38.406Z,6.10
2019-04-04T01:06:41.004Z,6.40
2019-04-04T01:11:43.554Z,6.00
2019-04-04T01:16:46.243Z,6.50
2019-04-04T01:21:49.021Z,6.70
2019-04-04T01:26:51.654Z,6.20
2019-04-04T01:31:54.385Z,6.93
2019-04-04T01:36:57.154Z,7.10
2019-04-04T01:41:59.615Z,6.57
2019-04-04T01:47:02.181Z,7.30
2019-04-04T01:52:04.761Z,6.90
2019-04-04T01:57:08.032Z,7.70
2019-04-04T02:02:09.912Z,6.67
2019-04-04T02:07:12.400Z,7.20
2019-04-04T02:12:14.949Z,6.80
2019-04-04T02:17:17.464Z,7.40
2019-04-04T02:22:20.006Z,6.63
2019-04-04T02:27:22.518Z,6.17
2019-04-04T02:32:26.670Z,6.23
2019-04-04T02:37:27.724Z,6.03
2019-04-04T02:42:30.268Z,5.87
2019-04-04T02:47:32.807Z,6.30
2019-04-04T02:52:35.397Z,5.17
2019-04-04T02:57:41.188Z,6.43
2019-04-04T03:02:40.585Z,5.20
2019-04-04T03:07:43.151Z,4.00
2019-04-04T03:12:45.731Z,6.27
2019-04-04T03:17:48.248Z,4.43
2019-04-04T03:22:50.818Z,4.17
2019-04-04T03:27:55.482Z,4.67
2019-04-04T03:32:55.938Z,4.93
2019-04-04T03:37:58.459Z,5.27
2019-04-04T03:43:01.041Z,6.00
2019-04-04T03:48:03.600Z,5.83
2019-04-04T03:53:06.328Z,5.80
2019-04-04T03:58:08.889Z,6.03
2019-04-04T04:03:11.450Z,6.50
2019-04-04T04:08:13.939Z,6.80
2019-04-04T04:13:17.540Z,7.00
2019-04-04T04:18:21.454Z,6.43
2019-04-04T04:23:24.042Z,7.70
2019-04-04T04:28:24.482Z,8.83
2019-04-04T04:33:29.310Z,7.73
2019-04-04T04:38:29.656Z,7.60
2019-04-04T04:43:33.575Z,8.23
2019-04-04T04:48:34.729Z,7.40
2019-04-04T04:53:37.275Z,8.27
2019-04-04T04:58:41.742Z,8.40
2019-04-04T05:03:42.401Z,8.97
2019-04-04T05:08:44.930Z,9.13
2019-04-04T05:13:47.505Z,8.50
2019-04-04T05:18:50.085Z,8.60
2019-04-04T05:23:52.605Z,11.57
2019-04-04T05:28:56.988Z,11.60
2019-04-04T05:33:59.125Z,9.87
2019-04-04T05:39:00.442Z,9.90
2019-04-04T05:44:03.106Z,10.40
2019-04-04T05:49:07.866Z,10.50
2019-04-04T05:54:08.432Z,14.17
2019-04-04T05:59:10.949Z,14.07
2019-04-04T06:04:13.495Z,12.70
2019-04-04T06:09:16.096Z,13.20
2019-04-04T06:14:20.561Z,14.67
2019-04-04T06:19:21.202Z,12.07
2019-04-04T06:24:25.206Z,11.43
2019-04-04T06:29:26.316Z,13.40
2019-04-04T06:34:28.952Z,15.10
2019-04-04T06:39:31.551Z,15.13
2019-04-04T06:44:34.110Z,18.00
2019-04-04T06:49:36.744Z,15.40
2019-04-04T06:54:39.308Z,15.43
2019-04-04T06:59:43.331Z,15.53
2019-04-04T07:04:44.456Z,13.43
2019-04-04T07:09:48.261Z,14.60
2019-04-04T07:14:49.651Z,17.30
2019-04-04T07:19:52.115Z,14.70
2019-04-04T07:24:54.657Z,17.20
2019-04-04T07:29:57.316Z,14.60
2019-04-04T07:34:59.854Z,12.87
2019-04-04T07:40:03.551Z,12.40
2019-04-04T07:45:05.315Z,15.60
2019-04-04T07:50:08.027Z,13.70
2019-04-04T07:55:11.024Z,14.13
2019-04-04T08:00:13.494Z,12.30
2019-04-04T08:05:16.059Z,12.20
2019-04-04T08:10:20.744Z,11.63
2019-04-04T08:15:21.355Z,12.10
2019-04-04T08:20:23.916Z,11.70
2019-04-04T08:25:26.604Z,11.50
2019-04-04T08:30:29.230Z,11.03
2019-04-04T08:35:31.888Z,11.43
2019-04-04T08:40:34.510Z,10.43
2019-04-04T08:45:37.102Z,12.03
2019-04-04T08:50:39.721Z,11.00
2019-04-04T08:55:42.276Z,9.90
2019-04-04T09:00:44.911Z,10.97
2019-04-04T09:05:47.494Z,10.10
2019-04-04T09:10:50.138Z,10.90
2019-04-04T09:15:52.712Z,11.13
2019-04-04T09:20:55.350Z,10.37
2019-04-04T09:26:05.307Z,10.47
2019-04-04T09:31:00.562Z,12.23
2019-04-04T09:36:03.204Z,10.83
2019-04-04T09:41:05.875Z,10.77
2019-04-04T09:46:08.504Z,11.90
2019-04-04T09:51:11.098Z,13.27
2019-04-04T09:56:13.710Z,12.77
2019-04-04T10:01:16.314Z,13.47
2019-04-04T10:06:18.988Z,13.53
2019-04-04T10:11:21.604Z,14.20
2019-04-04T10:16:24.214Z,14.70
2019-04-04T10:21:26.840Z,16.67
2019-04-04T10:26:29.510Z,16.80
2019-04-04T10:31:32.101Z,18.20
2019-04-04T10:36:34.678Z,17.30
2019-04-04T10:41:37.270Z,18.30
2019-04-04T10:46:39.903Z,16.70
2019-04-04T10:51:42.519Z,17.57
2019-04-04T10:56:45.100Z,16.27
2019-04-04T11:01:47.680Z,15.57
2019-04-04T11:06:50.298Z,14.90
2019-04-04T11:11:52.868Z,16.27
2019-04-04T11:16:55.473Z,16.17
2019-04-04T11:21:58.133Z,16.27
2019-04-04T11:27:00.726Z,15.93
2019-04-04T11:32:03.436Z,14.87
2019-04-04T11:37:06.059Z,15.17
2019-04-04T11:42:08.678Z,15.67
2019-04-04T11:47:11.298Z,14.63
2019-04-04T11:52:13.876Z,14.27
2019-04-04T11:57:16.432Z,15.30
2019-04-04T12:02:19.028Z,15.83
2019-04-04T12:07:21.638Z,14.97
2019-04-04T12:12:24.284Z,14.90
2019-04-04T12:17:26.866Z,15.87
2019-04-04T12:22:29.481Z,14.80
2019-04-04T12:27:32.045Z,14.37
2019-04-04T12:32:34.622Z,14.40
2019-04-04T12:37:37.186Z,14.20
2019-04-04T12:42:39.775Z,15.53
2019-04-04T12:47:42.332Z,14.73
2019-04-04T12:52:44.942Z,14.17
2019-04-04T12:57:47.555Z,15.87
2019-04-04T13:02:50.115Z,15.97
2019-04-04T13:07:52.730Z,15.87
2019-04-04T13:12:55.336Z,14.83
2019-04-04T13:17:57.903Z,15.43
2019-04-04T13:23:00.464Z,16.33
2019-04-04T13:28:03.119Z,14.07
2019-04-04T13:33:05.716Z,13.53
2019-04-04T13:38:08.342Z,15.20
2019-04-04T13:43:10.933Z,14.20
2019-04-04T13:48:13.562Z,16.47
2019-04-04T13:53:16.179Z,15.90
2019-04-04T13:58:21.892Z,15.47
2019-04-04T14:03:21.537Z,16.67
2019-04-04T14:08:24.127Z,16.00
2019-04-04T14:13:26.755Z,15.97
2019-04-04T14:18:39.615Z,15.87
2019-04-04T14:23:31.936Z,16.53
2019-04-04T14:28:34.594Z,15.77
2019-04-04T14:33:37.223Z,15.07
2019-04-04T14:38:39.774Z,15.50
2019-04-04T14:43:42.330Z,15.03
2019-04-04T14:48:44.942Z,14.57
2019-04-04T14:53:47.533Z,12.93
2019-04-04T14:58:50.110Z,12.47
2019-04-04T15:03:52.701Z,12.70
2019-04-04T15:08:55.407Z,11.53
2019-04-04T15:13:58.049Z,11.83
2019-04-04T15:19:00.732Z,12.37
2019-04-04T15:24:03.473Z,12.57
2019-04-04T15:29:06.084Z,11.43
2019-04-04T15:34:08.652Z,12.23
2019-04-04T15:39:11.262Z,11.17
2019-04-04T15:44:13.846Z,10.60
2019-04-04T15:49:16.471Z,10.03
2019-04-04T15:54:19.126Z,11.87
2019-04-04T15:59:21.702Z,10.10
2019-04-04T16:04:24.175Z,9.03
2019-04-04T16:09:26.686Z,10.03
2019-04-04T16:14:29.344Z,10.03
2019-04-04T16:19:32.000Z,10.33
2019-04-04T16:24:34.670Z,9.47
2019-04-04T16:29:37.212Z,9.40
2019-04-04T16:34:39.790Z,9.60
2019-04-04T16:39:42.692Z,7.70
2019-04-04T16:44:45.342Z,8.57
2019-04-04T16:49:48.864Z,7.63
2019-04-04T16:54:53.709Z,9.07
2019-04-04T16:59:54.140Z,9.60
2019-04-04T17:04:56.736Z,7.73
2019-04-04T17:09:59.327Z,8.10
2019-04-04T17:15:01.940Z,7.93
2019-04-04T17:25:09.594Z,7.50
2019-04-04T17:30:12.816Z,8.20
2019-04-04T17:35:14.948Z,7.07
2019-04-04T17:40:17.994Z,7.97
2019-04-04T17:45:20.794Z,8.73
2019-04-04T17:50:23.106Z,7.33
2019-04-04T17:55:26.373Z,8.53
2019-04-04T18:00:28.740Z,7.77
2019-04-04T18:05:31.262Z,7.43
2019-04-04T18:10:34.379Z,8.17
2019-04-04T18:15:37.167Z,7.13
2019-04-04T18:20:39.846Z,8.63
2019-04-04T18:25:42.653Z,8.17
2019-04-04T18:30:45.196Z,8.03
2019-04-04T18:35:47.899Z,9.13
2019-04-04T18:40:50.640Z,8.50
2019-04-04T18:45:53.234Z,9.67
2019-04-04T18:50:55.795Z,9.53
2019-04-04T18:55:58.398Z,9.87
2019-04-04T19:01:01.054Z,9.67
2019-04-04T19:06:03.636Z,9.43
2019-04-04T19:11:06.366Z,11.10
2019-04-04T19:16:09.005Z,9.80
2019-04-04T19:21:11.541Z,10.60
2019-04-04T19:26:14.226Z,11.60
2019-04-04T19:31:16.888Z,11.47
2019-04-04T19:36:19.556Z,12.27
2019-04-04T19:41:22.170Z,11.97
2019-04-04T19:46:36.575Z,12.03
2019-04-04T19:51:27.378Z,12.50
2019-04-04T19:56:30.231Z,14.03
2019-04-04T20:01:32.869Z,13.40
2019-04-04T20:06:35.522Z,16.17
2019-04-04T20:11:38.171Z,14.37
2019-04-04T20:16:40.741Z,14.20
2019-04-04T20:21:43.376Z,15.50
2019-04-04T20:26:45.948Z,16.57
2019-04-04T20:31:48.582Z,14.83
2019-04-04T20:36:51.199Z,14.97
2019-04-04T20:41:53.782Z,15.13
2019-04-04T20:46:58.142Z,15.17
2019-04-04T20:52:00.707Z,14.30
2019-04-04T20:57:03.286Z,12.77
2019-04-04T21:02:05.835Z,13.17
2019-04-04T21:07:08.354Z,13.27
2019-04-04T21:12:11.459Z,11.70
2019-04-04T21:17:13.533Z,12.10
2019-04-04T21:22:27.012Z,11.70
2019-04-04T21:27:19.036Z,11.17
2019-04-04T21:32:21.353Z,11.30
2019-04-04T21:37:23.912Z,10.70
2019-04-04T21:42:26.466Z,10.97
2019-04-04T21:47:29.062Z,12.00
2019-04-04T21:52:31.702Z,10.57
2019-04-04T21:57:34.220Z,11.23
2019-04-04T22:02:36.845Z,14.20
2019-04-04T22:07:39.440Z,12.90
2019-04-04T22:12:41.974Z,13.67
2019-04-04T22:17:44.555Z,15.33
2019-04-04T22:22:47.052Z,14.43
2019-04-04T22:27:49.590Z,14.40
2019-04-04T22:32:52.092Z,15.67
2019-04-04T22:37:54.669Z,15.80
2019-04-04T22:42:57.548Z,14.83
2019-04-04T22:48:00.121Z,15.37
2019-04-04T22:53:02.723Z,15.57
2019-04-04T22:58:05.259Z,13.93
2019-04-04T23:03:07.936Z,14.37
2019-04-04T23:08:10.484Z,16.00
2019-04-04T23:13:13.028Z,14.67
2019-04-04T23:18:15.554Z,13.57
2019-04-04T23:23:18.074Z,13.50
2019-04-04T23:28:20.616Z,14.37
2019-04-04T23:33:23.194Z,13.80
2019-04-04T23:38:25.708Z,14.17
2019-04-04T23:43:28.248Z,14.33
2019-04-04T23:48:30.798Z,14.27
2019-04-04T23:53:33.296Z,13.50
2019-04-04T23:58:35.870Z,13.37
